< < Back
Terminal Aerodrome Forecast


Current Version              Previous Versions:   1  2  3  4  5  6  7  8  9  

Terminal Aerodrome Forecast

581
FTUS42 KFFC 261007 AAA
TAFMCN
TAF AMD
KMCN 261007Z 2610/2706 12003KT 6SM BR FEW100
     FM261400 14006KT P6SM FEW035
     FM261800 16007KT P6SM VCSH SCT045 PROB30 2623/2703 6SM -TSRA
      OVC035CB
     FM270400 21002KT 6SM BR VCSH BKN050 BKN100=

Latest METAR

341
SAUS80 KWBC 261000 RRB
MTRMCN
METAR KMCN 260953Z AUTO 00000KT 5SM BR CLR 19/18 A3005 RMK AO2 SLP171
T01890178


USA.gov is the U.S. government's official web portal to all federal, state and local government web resources and services.